Terminal Aerodrome Forecast
Issued by NWS

Home | Current Version | Previous Version | Text Only | Print | Product List | Glossary On
Versions: 1 2 3 4 5 6 7 8 9 10 11 12 13 14
000
FTUS44 KLIX 261137 AAA
TAFHDC
TAF AMD
KHDC 261137Z 2612/2712 00000KT P6SM SKC
      TEMPO 2612/2613 BKN003
     FM261300 VRB03KT P6SM BKN025 BKN150
     FM261700 10004KT P6SM FEW035 SCT090
     FM262100 13004KT P6SM FEW050 SCT250 PROB30 2621/2624 4SM TSRA
      BKN050CB BKN250
     FM270900 00000KT P6SM FEW030=

USA.gov is the U.S. government's official web portal to all federal, state and local government web resources and services.